sensor_id;sensor_type;location;lat;lon;timestamp;P1;durP1;ratioP1;P2;durP2;ratioP2
48076;SDS011;33854;57.708;12.008;2023-03-01T00:01:49;3.70;;;2.40;;
48076;SDS011;33854;57.708;12.008;2023-03-01T00:04:14;11.27;;;3.27;;
48076;SDS011;33854;57.708;12.008;2023-03-01T00:06:40;5.13;;;2.20;;
48076;SDS011;33854;57.708;12.008;2023-03-01T00:09:07;6.95;;;3.10;;
48076;SDS011;33854;57.708;12.008;2023-03-01T00:11:33;5.13;;;2.83;;
48076;SDS011;33854;57.708;12.008;2023-03-01T00:14:00;17.15;;;3.55;;
48076;SDS011;33854;57.708;12.008;2023-03-01T00:16:27;5.97;;;3.45;;
48076;SDS011;33854;57.708;12.008;2023-03-01T00:18:55;6.18;;;3.20;;
48076;SDS011;33854;57.708;12.008;2023-03-01T00:21:22;6.43;;;3.05;;
48076;SDS011;33854;57.708;12.008;2023-03-01T00:23:48;6.28;;;4.00;;
48076;SDS011;33854;57.708;12.008;2023-03-01T00:26:14;5.65;;;2.65;;
48076;SDS011;33854;57.708;12.008;2023-03-01T00:28:41;6.25;;;3.53;;
48076;SDS011;33854;57.708;12.008;2023-03-01T00:31:12;7.82;;;3.63;;
48076;SDS011;33854;57.708;12.008;2023-03-01T00:33:39;5.80;;;2.90;;
48076;SDS011;33854;57.708;12.008;2023-03-01T00:36:05;10.90;;;3.80;;
48076;SDS011;33854;57.708;12.008;2023-03-01T00:38:35;6.50;;;3.40;;
48076;SDS011;33854;57.708;12.008;2023-03-01T00:41:06;6.47;;;3.50;;
48076;SDS011;33854;57.708;12.008;2023-03-01T00:43:32;8.30;;;4.05;;
48076;SDS011;33854;57.708;12.008;2023-03-01T00:46:08;5.60;;;4.28;;
48076;SDS011;33854;57.708;12.008;2023-03-01T00:48:36;5.85;;;3.88;;
48076;SDS011;33854;57.708;12.008;2023-03-01T00:51:08;9.77;;;3.72;;
48076;SDS011;33854;57.708;12.008;2023-03-01T00:53:36;6.22;;;3.83;;
48076;SDS011;33854;57.708;12.008;2023-03-01T00:56:02;5.40;;;3.25;;
48076;SDS011;33854;57.708;12.008;2023-03-01T00:58:29;6.35;;;3.00;;
48076;SDS011;33854;57.708;12.008;2023-03-01T01:00:54;4.87;;;3.20;;
48076;SDS011;33854;57.708;12.008;2023-03-01T01:03:20;4.03;;;3.63;;
48076;SDS011;33854;57.708;12.008;2023-03-01T01:05:46;5.68;;;2.92;;
48076;SDS011;33854;57.708;12.008;2023-03-01T01:08:12;8.03;;;3.10;;
48076;SDS011;33854;57.708;12.008;2023-03-01T01:10:38;5.03;;;3.03;;
48076;SDS011;33854;57.708;12.008;2023-03-01T01:13:03;5.17;;;2.97;;
48076;SDS011;33854;57.708;12.008;2023-03-01T01:15:29;7.30;;;3.30;;
48076;SDS011;33854;57.708;12.008;2023-03-01T01:17:59;5.57;;;3.25;;
48076;SDS011;33854;57.708;12.008;2023-03-01T01:20:24;4.17;;;2.53;;
48076;SDS011;33854;57.708;12.008;2023-03-01T01:22:49;5.60;;;3.40;;
48076;SDS011;33854;57.708;12.008;2023-03-01T01:25:16;7.60;;;3.60;;
48076;SDS011;33854;57.708;12.008;2023-03-01T01:27:41;6.37;;;3.67;;
48076;SDS011;33854;57.708;12.008;2023-03-01T01:30:07;6.70;;;3.23;;
48076;SDS011;33854;57.708;12.008;2023-03-01T01:32:33;4.18;;;3.15;;
48076;SDS011;33854;57.708;12.008;2023-03-01T01:34:58;9.07;;;3.20;;
48076;SDS011;33854;57.708;12.008;2023-03-01T01:37:23;6.37;;;3.37;;
48076;SDS011;33854;57.708;12.008;2023-03-01T01:39:56;5.57;;;3.30;;
48076;SDS011;33854;57.708;12.008;2023-03-01T01:42:25;4.30;;;2.83;;
48076;SDS011;33854;57.708;12.008;2023-03-01T01:47:50;6.82;;;2.78;;
48076;SDS011;33854;57.708;12.008;2023-03-01T01:50:17;4.60;;;2.60;;
48076;SDS011;33854;57.708;12.008;2023-03-01T01:52:44;4.18;;;2.33;;
48076;SDS011;33854;57.708;12.008;2023-03-01T01:55:12;5.05;;;2.72;;
48076;SDS011;33854;57.708;12.008;2023-03-01T01:57:47;5.72;;;3.13;;
48076;SDS011;33854;57.708;12.008;2023-03-01T02:00:16;2.50;;;2.30;;
48076;SDS011;33854;57.708;12.008;2023-03-01T02:02:45;5.95;;;3.08;;
48076;SDS011;33854;57.708;12.008;2023-03-01T02:07:39;4.20;;;2.70;;
48076;SDS011;33854;57.708;12.008;2023-03-01T02:10:06;6.22;;;3.20;;
48076;SDS011;33854;57.708;12.008;2023-03-01T02:12:33;7.03;;;3.03;;
48076;SDS011;33854;57.708;12.008;2023-03-01T02:15:00;4.25;;;2.88;;
48076;SDS011;33854;57.708;12.008;2023-03-01T02:17:25;5.13;;;2.93;;
48076;SDS011;33854;57.708;12.008;2023-03-01T02:22:37;9.50;;;3.17;;
48076;SDS011;33854;57.708;12.008;2023-03-01T02:27:35;4.72;;;3.45;;
48076;SDS011;33854;57.708;12.008;2023-03-01T02:30:06;5.63;;;3.10;;
48076;SDS011;33854;57.708;12.008;2023-03-01T02:32:33;6.25;;;3.45;;
48076;SDS011;33854;57.708;12.008;2023-03-01T02:35:00;8.45;;;3.75;;
48076;SDS011;33854;57.708;12.008;2023-03-01T02:37:26;6.90;;;3.60;;
48076;SDS011;33854;57.708;12.008;2023-03-01T02:39:58;6.68;;;3.58;;
48076;SDS011;33854;57.708;12.008;2023-03-01T02:42:31;6.15;;;3.33;;
48076;SDS011;33854;57.708;12.008;2023-03-01T02:45:01;5.45;;;3.78;;
48076;SDS011;33854;57.708;12.008;2023-03-01T02:47:27;5.17;;;3.80;;
48076;SDS011;33854;57.708;12.008;2023-03-01T02:49:52;6.13;;;3.40;;
48076;SDS011;33854;57.708;12.008;2023-03-01T02:55:08;6.93;;;3.88;;
48076;SDS011;33854;57.708;12.008;2023-03-01T02:57:36;4.53;;;3.15;;
48076;SDS011;33854;57.708;12.008;2023-03-01T03:00:05;7.28;;;3.58;;
48076;SDS011;33854;57.708;12.008;2023-03-01T03:02:33;6.70;;;3.20;;
48076;SDS011;33854;57.708;12.008;2023-03-01T03:05:09;5.53;;;3.05;;
48076;SDS011;33854;57.708;12.008;2023-03-01T03:07:43;4.57;;;3.13;;
48076;SDS011;33854;57.708;12.008;2023-03-01T03:10:11;6.40;;;3.85;;
48076;SDS011;33854;57.708;12.008;2023-03-01T03:12:40;4.82;;;3.42;;
48076;SDS011;33854;57.708;12.008;2023-03-01T03:15:06;5.40;;;3.72;;
48076;SDS011;33854;57.708;12.008;2023-03-01T03:17:37;7.43;;;3.92;;
48076;SDS011;33854;57.708;12.008;2023-03-01T03:20:06;6.22;;;3.50;;
48076;SDS011;33854;57.708;12.008;2023-03-01T03:22:36;6.57;;;3.70;;
48076;SDS011;33854;57.708;12.008;2023-03-01T03:25:04;11.52;;;3.17;;
48076;SDS011;33854;57.708;12.008;2023-03-01T03:27:30;6.82;;;4.00;;
48076;SDS011;33854;57.708;12.008;2023-03-01T03:29:57;9.07;;;4.10;;
48076;SDS011;33854;57.708;12.008;2023-03-01T03:32:22;6.77;;;3.93;;
48076;SDS011;33854;57.708;12.008;2023-03-01T03:34:47;9.37;;;4.27;;
48076;SDS011;33854;57.708;12.008;2023-03-01T03:37:14;7.97;;;3.97;;
48076;SDS011;33854;57.708;12.008;2023-03-01T03:39:59;6.38;;;3.58;;
48076;SDS011;33854;57.708;12.008;2023-03-01T03:42:24;6.07;;;3.97;;
48076;SDS011;33854;57.708;12.008;2023-03-01T03:44:50;3.50;;;2.60;;
48076;SDS011;33854;57.708;12.008;2023-03-01T03:47:15;8.73;;;4.33;;
48076;SDS011;33854;57.708;12.008;2023-03-01T03:49:41;10.87;;;4.03;;
48076;SDS011;33854;57.708;12.008;2023-03-01T03:52:06;5.47;;;3.80;;
48076;SDS011;33854;57.708;12.008;2023-03-01T03:54:38;6.45;;;4.05;;
48076;SDS011;33854;57.708;12.008;2023-03-01T03:57:05;8.85;;;4.30;;
48076;SDS011;33854;57.708;12.008;2023-03-01T03:59:31;4.72;;;3.92;;
48076;SDS011;33854;57.708;12.008;2023-03-01T04:01:57;8.00;;;4.37;;
48076;SDS011;33854;57.708;12.008;2023-03-01T04:04:22;8.63;;;4.43;;
48076;SDS011;33854;57.708;12.008;2023-03-01T04:06:48;8.10;;;4.20;;
48076;SDS011;33854;57.708;12.008;2023-03-01T04:09:14;7.03;;;3.63;;
48076;SDS011;33854;57.708;12.008;2023-03-01T04:11:39;9.37;;;4.20;;
48076;SDS011;33854;57.708;12.008;2023-03-01T04:14:04;4.93;;;2.93;;
48076;SDS011;33854;57.708;12.008;2023-03-01T04:16:30;6.97;;;3.70;;
48076;SDS011;33854;57.708;12.008;2023-03-01T04:18:55;7.73;;;3.70;;
48076;SDS011;33854;57.708;12.008;2023-03-01T04:21:21;5.45;;;3.30;;
48076;SDS011;33854;57.708;12.008;2023-03-01T04:23:47;6.67;;;3.10;;
48076;SDS011;33854;57.708;12.008;2023-03-01T04:26:12;5.57;;;3.50;;
48076;SDS011;33854;57.708;12.008;2023-03-01T04:28:39;10.03;;;3.97;;
48076;SDS011;33854;57.708;12.008;2023-03-01T04:31:11;5.75;;;3.13;;
48076;SDS011;33854;57.708;12.008;2023-03-01T04:33:42;5.57;;;2.92;;
48076;SDS011;33854;57.708;12.008;2023-03-01T04:36:10;5.53;;;3.05;;
48076;SDS011;33854;57.708;12.008;2023-03-01T04:38:36;5.32;;;2.95;;
48076;SDS011;33854;57.708;12.008;2023-03-01T04:41:04;6.10;;;3.15;;
48076;SDS011;33854;57.708;12.008;2023-03-01T04:43:34;6.75;;;3.60;;
48076;SDS011;33854;57.708;12.008;2023-03-01T04:46:01;7.65;;;2.58;;
48076;SDS011;33854;57.708;12.008;2023-03-01T04:48:28;13.80;;;3.10;;
48076;SDS011;33854;57.708;12.008;2023-03-01T04:50:54;9.50;;;2.33;;
48076;SDS011;33854;57.708;12.008;2023-03-01T04:53:19;7.70;;;2.60;;
48076;SDS011;33854;57.708;12.008;2023-03-01T04:55:45;5.63;;;3.20;;
48076;SDS011;33854;57.708;12.008;2023-03-01T04:58:10;2.90;;;2.33;;
48076;SDS011;33854;57.708;12.008;2023-03-01T05:00:35;3.70;;;2.47;;
48076;SDS011;33854;57.708;12.008;2023-03-01T05:03:01;5.43;;;3.07;;
48076;SDS011;33854;57.708;12.008;2023-03-01T05:05:28;6.87;;;3.03;;
48076;SDS011;33854;57.708;12.008;2023-03-01T05:07:56;5.13;;;3.00;;
48076;SDS011;33854;57.708;12.008;2023-03-01T05:10:24;6.05;;;3.10;;
48076;SDS011;33854;57.708;12.008;2023-03-01T05:15:17;4.55;;;2.63;;
48076;SDS011;33854;57.708;12.008;2023-03-01T05:17:43;4.65;;;2.88;;
48076;SDS011;33854;57.708;12.008;2023-03-01T05:20:09;2.97;;;2.67;;
48076;SDS011;33854;57.708;12.008;2023-03-01T05:22:35;4.25;;;2.72;;
48076;SDS011;33854;57.708;12.008;2023-03-01T05:25:02;7.60;;;3.23;;
48076;SDS011;33854;57.708;12.008;2023-03-01T05:27:28;5.25;;;3.22;;
48076;SDS011;33854;57.708;12.008;2023-03-01T05:29:54;28.52;;;13.70;;
48076;SDS011;33854;57.708;12.008;2023-03-01T05:32:20;28.00;;;14.00;;
48076;SDS011;33854;57.708;12.008;2023-03-01T05:34:46;9.97;;;4.53;;
48076;SDS011;33854;57.708;12.008;2023-03-01T05:37:12;5.13;;;3.03;;
48076;SDS011;33854;57.708;12.008;2023-03-01T05:39:38;8.98;;;2.92;;
48076;SDS011;33854;57.708;12.008;2023-03-01T05:42:04;4.27;;;3.07;;
48076;SDS011;33854;57.708;12.008;2023-03-01T05:44:30;6.87;;;3.33;;
48076;SDS011;33854;57.708;12.008;2023-03-01T05:46:55;9.07;;;3.00;;
48076;SDS011;33854;57.708;12.008;2023-03-01T05:49:21;5.80;;;2.67;;
48076;SDS011;33854;57.708;12.008;2023-03-01T05:51:49;6.95;;;2.55;;
48076;SDS011;33854;57.708;12.008;2023-03-01T05:54:16;11.35;;;3.15;;
48076;SDS011;33854;57.708;12.008;2023-03-01T05:56:42;9.00;;;2.58;;
48076;SDS011;33854;57.708;12.008;2023-03-01T05:59:09;6.10;;;2.97;;
48076;SDS011;33854;57.708;12.008;2023-03-01T06:01:35;4.87;;;3.33;;
48076;SDS011;33854;57.708;12.008;2023-03-01T06:04:01;6.95;;;2.78;;
48076;SDS011;33854;57.708;12.008;2023-03-01T06:06:27;12.18;;;6.43;;
48076;SDS011;33854;57.708;12.008;2023-03-01T06:08:53;7.32;;;3.90;;
48076;SDS011;33854;57.708;12.008;2023-03-01T06:11:19;5.78;;;2.95;;
48076;SDS011;33854;57.708;12.008;2023-03-01T06:13:46;2.95;;;2.13;;
48076;SDS011;33854;57.708;12.008;2023-03-01T06:16:12;4.70;;;2.83;;
48076;SDS011;33854;57.708;12.008;2023-03-01T06:18:38;6.47;;;3.08;;
48076;SDS011;33854;57.708;12.008;2023-03-01T06:21:04;7.35;;;2.35;;
48076;SDS011;33854;57.708;12.008;2023-03-01T06:23:30;7.18;;;3.38;;
48076;SDS011;33854;57.708;12.008;2023-03-01T06:25:56;5.85;;;2.95;;
48076;SDS011;33854;57.708;12.008;2023-03-01T06:28:22;5.33;;;2.57;;
48076;SDS011;33854;57.708;12.008;2023-03-01T06:30:48;3.30;;;2.10;;
48076;SDS011;33854;57.708;12.008;2023-03-01T06:33:14;4.05;;;2.30;;
48076;SDS011;33854;57.708;12.008;2023-03-01T06:35:40;9.80;;;2.83;;
48076;SDS011;33854;57.708;12.008;2023-03-01T06:38:05;6.97;;;2.37;;
48076;SDS011;33854;57.708;12.008;2023-03-01T06:40:31;7.20;;;3.07;;
48076;SDS011;33854;57.708;12.008;2023-03-01T06:43:00;16.00;;;3.55;;
48076;SDS011;33854;57.708;12.008;2023-03-01T06:45:26;7.95;;;2.50;;
48076;SDS011;33854;57.708;12.008;2023-03-01T06:47:51;7.33;;;2.80;;
48076;SDS011;33854;57.708;12.008;2023-03-01T06:50:17;10.23;;;3.03;;
48076;SDS011;33854;57.708;12.008;2023-03-01T06:52:43;4.65;;;2.22;;
48076;SDS011;33854;57.708;12.008;2023-03-01T06:57:35;6.32;;;2.13;;
48076;SDS011;33854;57.708;12.008;2023-03-01T07:00:01;3.57;;;2.13;;
48076;SDS011;33854;57.708;12.008;2023-03-01T07:02:28;5.90;;;1.88;;
48076;SDS011;33854;57.708;12.008;2023-03-01T07:04:53;2.23;;;1.03;;
48076;SDS011;33854;57.708;12.008;2023-03-01T07:07:19;5.40;;;1.77;;
48076;SDS011;33854;57.708;12.008;2023-03-01T07:09:45;3.03;;;1.80;;
48076;SDS011;33854;57.708;12.008;2023-03-01T07:12:11;12.68;;;7.15;;
48076;SDS011;33854;57.708;12.008;2023-03-01T07:14:36;8.53;;;4.43;;
48076;SDS011;33854;57.708;12.008;2023-03-01T07:17:02;3.30;;;2.27;;
48076;SDS011;33854;57.708;12.008;2023-03-01T07:19:27;5.53;;;1.77;;
48076;SDS011;33854;57.708;12.008;2023-03-01T07:21:53;6.40;;;2.60;;
48076;SDS011;33854;57.708;12.008;2023-03-01T07:24:18;5.60;;;2.80;;
48076;SDS011;33854;57.708;12.008;2023-03-01T07:26:44;3.13;;;1.23;;
48076;SDS011;33854;57.708;12.008;2023-03-01T07:29:13;5.13;;;1.90;;
48076;SDS011;33854;57.708;12.008;2023-03-01T07:31:39;4.23;;;2.23;;
48076;SDS011;33854;57.708;12.008;2023-03-01T07:34:04;5.80;;;2.60;;
48076;SDS011;33854;57.708;12.008;2023-03-01T07:36:30;6.23;;;1.93;;
48076;SDS011;33854;57.708;12.008;2023-03-01T07:38:55;4.03;;;2.30;;
48076;SDS011;33854;57.708;12.008;2023-03-01T07:41:21;6.47;;;1.85;;
48076;SDS011;33854;57.708;12.008;2023-03-01T07:43:47;4.10;;;1.40;;
48076;SDS011;33854;57.708;12.008;2023-03-01T07:46:12;10.20;;;2.30;;
48076;SDS011;33854;57.708;12.008;2023-03-01T07:48:38;4.27;;;2.50;;
48076;SDS011;33854;57.708;12.008;2023-03-01T07:51:04;1.27;;;1.17;;
48076;SDS011;33854;57.708;12.008;2023-03-01T07:53:31;2.40;;;1.67;;
48076;SDS011;33854;57.708;12.008;2023-03-01T07:56:07;5.38;;;2.05;;
48076;SDS011;33854;57.708;12.008;2023-03-01T07:58:34;2.83;;;1.50;;
48076;SDS011;33854;57.708;12.008;2023-03-01T08:01:10;3.20;;;1.60;;
48076;SDS011;33854;57.708;12.008;2023-03-01T08:03:40;2.25;;;1.58;;
48076;SDS011;33854;57.708;12.008;2023-03-01T08:06:07;3.72;;;1.35;;
48076;SDS011;33854;57.708;12.008;2023-03-01T08:08:33;1.38;;;1.27;;
48076;SDS011;33854;57.708;12.008;2023-03-01T08:11:00;1.13;;;1.02;;
48076;SDS011;33854;57.708;12.008;2023-03-01T08:13:27;1.05;;;1.00;;
48076;SDS011;33854;57.708;12.008;2023-03-01T08:15:53;1.00;;;1.00;;
48076;SDS011;33854;57.708;12.008;2023-03-01T08:18:19;5.83;;;1.10;;
48076;SDS011;33854;57.708;12.008;2023-03-01T08:20:45;3.30;;;1.20;;
48076;SDS011;33854;57.708;12.008;2023-03-01T08:23:11;1.80;;;1.00;;
48076;SDS011;33854;57.708;12.008;2023-03-01T08:25:37;1.67;;;0.80;;
48076;SDS011;33854;57.708;12.008;2023-03-01T08:28:03;2.43;;;0.70;;
48076;SDS011;33854;57.708;12.008;2023-03-01T08:30:29;1.17;;;0.75;;
48076;SDS011;33854;57.708;12.008;2023-03-01T08:32:55;1.13;;;0.60;;
48076;SDS011;33854;57.708;12.008;2023-03-01T08:35:20;1.23;;;0.80;;
48076;SDS011;33854;57.708;12.008;2023-03-01T08:37:46;0.80;;;0.50;;
48076;SDS011;33854;57.708;12.008;2023-03-01T08:40:12;0.70;;;0.70;;
48076;SDS011;33854;57.708;12.008;2023-03-01T08:42:38;0.90;;;0.30;;
48076;SDS011;33854;57.708;12.008;2023-03-01T08:45:05;1.25;;;0.70;;
48076;SDS011;33854;57.708;12.008;2023-03-01T08:47:32;0.40;;;0.40;;
48076;SDS011;33854;57.708;12.008;2023-03-01T08:49:58;1.10;;;0.70;;
48076;SDS011;33854;57.708;12.008;2023-03-01T08:52:24;0.80;;;0.45;;
48076;SDS011;33854;57.708;12.008;2023-03-01T08:54:51;0.80;;;0.60;;
48076;SDS011;33854;57.708;12.008;2023-03-01T08:57:16;0.63;;;0.52;;
48076;SDS011;33854;57.708;12.008;2023-03-01T08:59:42;2.33;;;0.43;;
48076;SDS011;33854;57.708;12.008;2023-03-01T09:02:14;0.80;;;0.50;;
48076;SDS011;33854;57.708;12.008;2023-03-01T09:04:41;2.22;;;1.08;;
48076;SDS011;33854;57.708;12.008;2023-03-01T09:07:07;5.40;;;0.50;;
48076;SDS011;33854;57.708;12.008;2023-03-01T09:09:33;0.57;;;0.40;;
48076;SDS011;33854;57.708;12.008;2023-03-01T09:11:59;1.27;;;0.28;;
48076;SDS011;33854;57.708;12.008;2023-03-01T09:14:25;1.13;;;0.50;;
48076;SDS011;33854;57.708;12.008;2023-03-01T09:16:50;0.30;;;0.30;;
48076;SDS011;33854;57.708;12.008;2023-03-01T09:19:16;0.80;;;0.47;;
48076;SDS011;33854;57.708;12.008;2023-03-01T09:21:41;0.50;;;0.40;;
48076;SDS011;33854;57.708;12.008;2023-03-01T09:24:16;0.98;;;0.22;;
48076;SDS011;33854;57.708;12.008;2023-03-01T09:26:43;0.77;;;0.30;;
48076;SDS011;33854;57.708;12.008;2023-03-01T09:29:11;2.60;;;0.47;;
48076;SDS011;33854;57.708;12.008;2023-03-01T09:31:37;0.67;;;0.37;;
48076;SDS011;33854;57.708;12.008;2023-03-01T09:34:02;0.73;;;0.20;;
48076;SDS011;33854;57.708;12.008;2023-03-01T09:36:28;0.33;;;0.30;;
48076;SDS011;33854;57.708;12.008;2023-03-01T09:38:54;1.90;;;0.40;;
48076;SDS011;33854;57.708;12.008;2023-03-01T09:43:52;0.50;;;0.32;;
48076;SDS011;33854;57.708;12.008;2023-03-01T09:46:23;0.22;;;0.22;;
48076;SDS011;33854;57.708;12.008;2023-03-01T09:48:51;1.30;;;0.20;;
48076;SDS011;33854;57.708;12.008;2023-03-01T09:51:42;0.30;;;0.30;;
48076;SDS011;33854;57.708;12.008;2023-03-01T09:54:08;3.08;;;0.40;;
48076;SDS011;33854;57.708;12.008;2023-03-01T09:59:25;1.15;;;0.20;;
48076;SDS011;33854;57.708;12.008;2023-03-01T10:04:45;4.03;;;0.40;;
48076;SDS011;33854;57.708;12.008;2023-03-01T10:09:47;1.63;;;0.40;;
48076;SDS011;33854;57.708;12.008;2023-03-01T10:12:23;0.87;;;0.40;;
48076;SDS011;33854;57.708;12.008;2023-03-01T10:14:57;1.38;;;0.40;;
48076;SDS011;33854;57.708;12.008;2023-03-01T10:22:43;2.60;;;0.60;;
48076;SDS011;33854;57.708;12.008;2023-03-01T10:25:15;1.83;;;0.25;;
48076;SDS011;33854;57.708;12.008;2023-03-01T10:27:52;1.13;;;0.38;;
48076;SDS011;33854;57.708;12.008;2023-03-01T10:30:32;2.65;;;0.30;;
48076;SDS011;33854;57.708;12.008;2023-03-01T10:36:08;0.25;;;0.20;;
48076;SDS011;33854;57.708;12.008;2023-03-01T10:38:49;0.53;;;0.27;;
48076;SDS011;33854;57.708;12.008;2023-03-01T10:41:19;0.37;;;0.30;;
48076;SDS011;33854;57.708;12.008;2023-03-01T10:43:55;1.17;;;0.38;;
48076;SDS011;33854;57.708;12.008;2023-03-01T10:46:27;0.95;;;0.32;;
48076;SDS011;33854;57.708;12.008;2023-03-01T10:49:19;7.25;;;0.60;;
48076;SDS011;33854;57.708;12.008;2023-03-01T10:51:45;4.72;;;0.75;;
48076;SDS011;33854;57.708;12.008;2023-03-01T10:54:17;1.92;;;0.35;;
48076;SDS011;33854;57.708;12.008;2023-03-01T10:56:57;1.55;;;0.20;;
48076;SDS011;33854;57.708;12.008;2023-03-01T10:59:29;2.33;;;0.28;;
48076;SDS011;33854;57.708;12.008;2023-03-01T11:05:01;4.13;;;0.20;;
48076;SDS011;33854;57.708;12.008;2023-03-01T11:07:27;4.60;;;0.25;;
48076;SDS011;33854;57.708;12.008;2023-03-01T11:09:53;1.65;;;0.80;;
48076;SDS011;33854;57.708;12.008;2023-03-01T11:12:19;0.57;;;0.53;;
48076;SDS011;33854;57.708;12.008;2023-03-01T11:22:41;1.52;;;0.35;;
48076;SDS011;33854;57.708;12.008;2023-03-01T11:25:19;1.67;;;0.20;;
48076;SDS011;33854;57.708;12.008;2023-03-01T11:27:49;5.90;;;0.60;;
48076;SDS011;33854;57.708;12.008;2023-03-01T11:30:20;5.60;;;0.70;;
48076;SDS011;33854;57.708;12.008;2023-03-01T11:35:33;7.57;;;0.70;;
48076;SDS011;33854;57.708;12.008;2023-03-01T11:38:16;9.32;;;0.95;;
48076;SDS011;33854;57.708;12.008;2023-03-01T11:40:49;5.55;;;0.50;;
48076;SDS011;33854;57.708;12.008;2023-03-01T11:49:16;5.55;;;0.50;;
48076;SDS011;33854;57.708;12.008;2023-03-01T11:54:39;11.65;;;1.00;;
48076;SDS011;33854;57.708;12.008;2023-03-01T12:00:02;4.72;;;0.50;;
48076;SDS011;33854;57.708;12.008;2023-03-01T12:02:59;4.63;;;0.80;;
48076;SDS011;33854;57.708;12.008;2023-03-01T12:08:15;5.43;;;0.73;;
48076;SDS011;33854;57.708;12.008;2023-03-01T12:22:30;2.10;;;0.85;;
48076;SDS011;33854;57.708;12.008;2023-03-01T12:30:16;1.88;;;0.50;;
48076;SDS011;33854;57.708;12.008;2023-03-01T12:43:41;7.18;;;0.55;;
48076;SDS011;33854;57.708;12.008;2023-03-01T12:51:44;2.13;;;0.30;;
48076;SDS011;33854;57.708;12.008;2023-03-01T12:54:29;5.03;;;0.55;;
48076;SDS011;33854;57.708;12.008;2023-03-01T12:56:56;1.67;;;0.40;;
48076;SDS011;33854;57.708;12.008;2023-03-01T12:59:31;1.17;;;0.30;;
48076;SDS011;33854;57.708;12.008;2023-03-01T13:10:50;0.30;;;0.30;;
48076;SDS011;33854;57.708;12.008;2023-03-01T13:13:22;6.07;;;0.60;;
48076;SDS011;33854;57.708;12.008;2023-03-01T13:15:50;3.10;;;0.20;;
48076;SDS011;33854;57.708;12.008;2023-03-01T13:26:00;1.70;;;0.30;;
48076;SDS011;33854;57.708;12.008;2023-03-01T13:31:01;2.28;;;0.38;;
48076;SDS011;33854;57.708;12.008;2023-03-01T13:35:54;4.00;;;0.60;;
48076;SDS011;33854;57.708;12.008;2023-03-01T13:41:17;1.33;;;0.50;;
48076;SDS011;33854;57.708;12.008;2023-03-01T13:46:58;3.83;;;0.30;;
48076;SDS011;33854;57.708;12.008;2023-03-01T13:49:29;4.15;;;0.50;;
48076;SDS011;33854;57.708;12.008;2023-03-01T13:52:06;3.08;;;0.55;;
48076;SDS011;33854;57.708;12.008;2023-03-01T13:54:46;4.10;;;0.63;;
48076;SDS011;33854;57.708;12.008;2023-03-01T13:57:12;2.93;;;0.57;;
48076;SDS011;33854;57.708;12.008;2023-03-01T13:59:47;6.07;;;0.75;;
48076;SDS011;33854;57.708;12.008;2023-03-01T14:02:12;3.63;;;0.87;;
48076;SDS011;33854;57.708;12.008;2023-03-01T14:04:38;4.75;;;0.60;;
48076;SDS011;33854;57.708;12.008;2023-03-01T14:09:45;2.22;;;0.38;;
48076;SDS011;33854;57.708;12.008;2023-03-01T14:18:07;3.50;;;0.50;;
48076;SDS011;33854;57.708;12.008;2023-03-01T14:20:41;1.88;;;0.20;;
48076;SDS011;33854;57.708;12.008;2023-03-01T14:23:12;1.00;;;0.20;;
48076;SDS011;33854;57.708;12.008;2023-03-01T14:25:45;1.00;;;0.20;;
48076;SDS011;33854;57.708;12.008;2023-03-01T14:30:42;5.05;;;0.35;;
48076;SDS011;33854;57.708;12.008;2023-03-01T14:35:54;3.05;;;0.22;;
48076;SDS011;33854;57.708;12.008;2023-03-01T14:40:57;6.07;;;0.60;;
48076;SDS011;33854;57.708;12.008;2023-03-01T14:43:26;7.68;;;0.70;;
48076;SDS011;33854;57.708;12.008;2023-03-01T14:45:53;6.82;;;0.32;;
48076;SDS011;33854;57.708;12.008;2023-03-01T14:48:19;1.60;;;0.30;;
48076;SDS011;33854;57.708;12.008;2023-03-01T14:50:45;1.45;;;0.10;;
48076;SDS011;33854;57.708;12.008;2023-03-01T14:53:15;3.55;;;0.10;;
48076;SDS011;33854;57.708;12.008;2023-03-01T14:55:54;3.23;;;0.10;;
48076;SDS011;33854;57.708;12.008;2023-03-01T14:58:24;1.55;;;0.10;;
48076;SDS011;33854;57.708;12.008;2023-03-01T15:00:52;1.20;;;0.10;;
48076;SDS011;33854;57.708;12.008;2023-03-01T15:03:23;1.77;;;0.40;;
48076;SDS011;33854;57.708;12.008;2023-03-01T15:05:49;1.65;;;0.20;;
48076;SDS011;33854;57.708;12.008;2023-03-01T15:08:20;5.13;;;0.43;;
48076;SDS011;33854;57.708;12.008;2023-03-01T15:13:28;0.30;;;0.20;;
48076;SDS011;33854;57.708;12.008;2023-03-01T15:16:08;1.85;;;0.20;;
48076;SDS011;33854;57.708;12.008;2023-03-01T15:18:36;0.60;;;0.10;;
48076;SDS011;33854;57.708;12.008;2023-03-01T15:21:13;1.98;;;0.10;;
48076;SDS011;33854;57.708;12.008;2023-03-01T15:23:47;0.93;;;0.40;;
48076;SDS011;33854;57.708;12.008;2023-03-01T15:26:21;4.22;;;0.60;;
48076;SDS011;33854;57.708;12.008;2023-03-01T15:28:50;0.32;;;0.32;;
48076;SDS011;33854;57.708;12.008;2023-03-01T15:31:24;2.33;;;0.20;;
48076;SDS011;33854;57.708;12.008;2023-03-01T15:33:51;1.15;;;0.10;;
48076;SDS011;33854;57.708;12.008;2023-03-01T15:38:58;3.92;;;0.20;;
48076;SDS011;33854;57.708;12.008;2023-03-01T15:41:58;0.82;;;0.13;;
48076;SDS011;33854;57.708;12.008;2023-03-01T15:44:17;4.22;;;0.65;;
48076;SDS011;33854;57.708;12.008;2023-03-01T15:46:51;2.45;;;0.20;;
48076;SDS011;33854;57.708;12.008;2023-03-01T15:51:45;2.75;;;0.22;;
48076;SDS011;33854;57.708;12.008;2023-03-01T15:54:21;1.37;;;0.10;;
48076;SDS011;33854;57.708;12.008;2023-03-01T15:56:50;6.40;;;2.10;;
48076;SDS011;33854;57.708;12.008;2023-03-01T15:59:16;0.53;;;0.37;;
48076;SDS011;33854;57.708;12.008;2023-03-01T16:04:11;5.50;;;0.70;;
48076;SDS011;33854;57.708;12.008;2023-03-01T16:06:41;2.75;;;0.50;;
48076;SDS011;33854;57.708;12.008;2023-03-01T16:09:07;5.10;;;0.77;;
48076;SDS011;33854;57.708;12.008;2023-03-01T16:11:32;5.50;;;0.90;;
48076;SDS011;33854;57.708;12.008;2023-03-01T16:14:01;5.82;;;1.88;;
48076;SDS011;33854;57.708;12.008;2023-03-01T16:16:27;7.80;;;2.13;;
48076;SDS011;33854;57.708;12.008;2023-03-01T16:18:52;4.83;;;1.80;;
48076;SDS011;33854;57.708;12.008;2023-03-01T16:21:23;5.63;;;1.30;;
48076;SDS011;33854;57.708;12.008;2023-03-01T16:23:49;5.38;;;1.35;;
48076;SDS011;33854;57.708;12.008;2023-03-01T16:28:43;6.75;;;1.13;;
48076;SDS011;33854;57.708;12.008;2023-03-01T16:33:35;6.53;;;0.90;;
48076;SDS011;33854;57.708;12.008;2023-03-01T16:36:06;4.47;;;0.80;;
48076;SDS011;33854;57.708;12.008;2023-03-01T16:38:34;8.73;;;0.85;;
48076;SDS011;33854;57.708;12.008;2023-03-01T16:40:59;10.50;;;1.30;;
48076;SDS011;33854;57.708;12.008;2023-03-01T16:43:25;7.63;;;1.40;;
48076;SDS011;33854;57.708;12.008;2023-03-01T16:45:51;7.43;;;1.37;;
48076;SDS011;33854;57.708;12.008;2023-03-01T16:48:16;10.40;;;1.30;;
48076;SDS011;33854;57.708;12.008;2023-03-01T16:50:42;10.17;;;2.47;;
48076;SDS011;33854;57.708;12.008;2023-03-01T16:53:07;10.40;;;1.30;;
48076;SDS011;33854;57.708;12.008;2023-03-01T16:55:33;4.37;;;0.83;;
48076;SDS011;33854;57.708;12.008;2023-03-01T16:57:59;9.27;;;1.00;;
48076;SDS011;33854;57.708;12.008;2023-03-01T17:00:24;5.40;;;0.90;;
48076;SDS011;33854;57.708;12.008;2023-03-01T17:02:50;9.63;;;1.40;;
48076;SDS011;33854;57.708;12.008;2023-03-01T17:05:16;1.80;;;0.60;;
48076;SDS011;33854;57.708;12.008;2023-03-01T17:07:43;4.18;;;0.95;;
48076;SDS011;33854;57.708;12.008;2023-03-01T17:10:09;1.17;;;1.00;;
48076;SDS011;33854;57.708;12.008;2023-03-01T17:12:36;2.85;;;0.60;;
48076;SDS011;33854;57.708;12.008;2023-03-01T17:15:02;2.80;;;0.60;;
48076;SDS011;33854;57.708;12.008;2023-03-01T17:17:28;2.88;;;0.57;;